Time;durP1;ratioP1;P1;durP2;ratioP2;P2;SDS_P1;SDS_P2;PMS_P1;PMS_P2;Temp;Humidity;BMP_temperature;BMP_pressure;BME280_temperature;BME280_humidity;BME280_pressure;Samples;Min_cycle;Max_cycle;Signal;HPM_P1;HPM_P2
2022/11/04 00:02:08;;;;;;;;;;;11.80;99.90;;;;;;7362188;19;112578;-93
2022/11/04 00:04:35;;;;;;;;;;;11.80;99.90;;;;;;7360860;19;108767;-94
2022/11/04 00:08:22;;;;;;;;;;;11.80;99.90;;;;;;7359090;19;109588;-94
2022/11/04 00:09:49;;;;;;;;;;;11.80;99.90;;;;;;7358817;19;110356;-95
2022/11/04 00:12:25;;;;;;;;;;;11.80;99.90;;;;;;7359722;19;108080;-93
2022/11/04 00:14:52;;;;;;;;;;;11.80;99.90;;;;;;7361904;19;110424;-95
2022/11/04 00:17:22;;;;;;;;;;;11.80;99.90;;;;;;7359243;19;108477;-95
2022/11/04 00:33:24;;;;;;;;;;;11.80;99.90;;;;;;7354352;19;110364;-94
2022/11/04 00:33:45;;;;;;;;;;;11.80;99.90;;;;;;7354808;19;108378;-93
2022/11/04 00:36:12;;;;;;;;;;;11.80;99.90;;;;;;7358729;19;112214;-96
2022/11/04 00:38:39;;;;;;;;;;;11.80;99.90;;;;;;7354271;19;108329;-94
2022/11/04 00:41:24;;;;;;;;;;;11.70;99.90;;;;;;7355154;19;108313;-95
2022/11/04 00:43:53;;;;;;;;;;;11.70;99.90;;;;;;7353866;19;111810;-95
2022/11/04 00:46:20;;;;;;;;;;;11.70;99.90;;;;;;7355317;19;108403;-93
2022/11/04 00:48:47;;;;;;;;;;;11.60;99.90;;;;;;7355212;19;109886;-94
2022/11/04 00:51:14;;;;;;;;;;;11.70;99.90;;;;;;7351003;19;112222;-93
2022/11/04 00:53:41;;;;;;;;;;;11.60;99.90;;;;;;7351444;19;108155;-93
2022/11/04 00:56:08;;;;;;;;;;;11.60;99.90;;;;;;7352938;19;108111;-93
2022/11/04 00:58:35;;;;;;;;;;;11.60;99.90;;;;;;7356408;19;109297;-94
2022/11/04 01:01:09;;;;;;;;;;;11.60;99.90;;;;;;7352620;19;108941;-93
2022/11/04 01:03:36;;;;;;;;;;;11.60;99.90;;;;;;7348909;19;110462;-94
2022/11/04 01:06:04;;;;;;;;;;;11.60;99.90;;;;;;7351369;19;108564;-94
2022/11/04 01:08:31;;;;;;;;;;;11.50;99.90;;;;;;7350335;19;109443;-93
2022/11/04 01:11:01;;;;;;;;;;;11.50;99.90;;;;;;7348855;19;112121;-93
2022/11/04 01:13:29;;;;;;;;;;;11.50;99.90;;;;;;7350246;19;108524;-93
2022/11/04 01:16:01;;;;;;;;;;;11.50;99.90;;;;;;7352499;19;112307;-94
2022/11/04 01:18:28;;;;;;;;;;;11.40;99.90;;;;;;7350597;19;110521;-93
2022/11/04 01:20:59;;;;;;;;;;;11.40;99.90;;;;;;7357537;19;108764;-93
2022/11/04 01:23:26;;;;;;;;;;;11.40;99.90;;;;;;7349423;19;109116;-92
2022/11/04 01:25:53;;;;;;;;;;;11.40;99.90;;;;;;7349191;19;108760;-94
2022/11/04 01:28:20;;;;;;;;;;;11.40;99.90;;;;;;7351269;19;108664;-93
2022/11/04 01:30:47;;;;;;;;;;;11.40;99.90;;;;;;7350899;19;111275;-93
2022/11/04 01:33:14;;;;;;;;;;;11.40;99.90;;;;;;7350609;19;108750;-94
2022/11/04 01:35:41;;;;;;;;;;;11.30;99.90;;;;;;7349593;19;108317;-94
2022/11/04 01:38:08;;;;;;;;;;;11.30;99.90;;;;;;7351816;19;113344;-94
2022/11/04 01:40:37;;;;;;;;;;;11.30;99.90;;;;;;7347738;19;108491;-93
2022/11/04 01:43:08;;;;;;;;;;;11.30;99.90;;;;;;7355103;19;111945;-94
2022/11/04 01:45:36;;;;;;;;;;;11.30;99.90;;;;;;7350907;19;108317;-93
2022/11/04 01:48:06;;;;;;;;;;;11.30;99.90;;;;;;7350094;19;109178;-93
2022/11/04 01:50:33;;;;;;;;;;;11.30;99.90;;;;;;7348969;19;111759;-93
2022/11/04 01:53:13;;;;;;;;;;;11.30;99.90;;;;;;7348671;19;108710;-92
2022/11/04 01:55:43;;;;;;;;;;;11.30;99.90;;;;;;7347891;19;108859;-94
2022/11/04 01:58:12;;;;;;;;;;;11.30;99.90;;;;;;7347736;19;109212;-93
2022/11/04 02:00:40;;;;;;;;;;;11.30;99.90;;;;;;7349423;19;108337;-93
2022/11/04 02:03:09;;;;;;;;;;;11.30;99.90;;;;;;7349545;19;109276;-94
2022/11/04 02:05:37;;;;;;;;;;;11.30;99.90;;;;;;7355152;19;110653;-92
2022/11/04 02:08:08;;;;;;;;;;;11.30;99.90;;;;;;7348398;19;119475;-94
2022/11/04 02:10:36;;;;;;;;;;;11.30;99.90;;;;;;7351996;19;108812;-93
2022/11/04 02:13:03;;;;;;;;;;;11.30;99.90;;;;;;7351418;19;108435;-95
2022/11/04 02:15:34;;;;;;;;;;;11.30;99.90;;;;;;7350683;19;110034;-94
2022/11/04 02:18:04;;;;;;;;;;;11.30;99.90;;;;;;7349090;19;109072;-93
2022/11/04 02:20:36;;;;;;;;;;;11.30;99.90;;;;;;7347497;19;108924;-94
2022/11/04 02:23:09;;;;;;;;;;;11.30;99.90;;;;;;7352302;19;108351;-94
2022/11/04 02:25:55;;;;;;;;;;;11.30;99.90;;;;;;7356026;19;108831;-94
2022/11/04 02:28:40;;;;;;;;;;;11.30;99.90;;;;;;7356374;19;108208;-94
2022/11/04 02:31:07;;;;;;;;;;;11.30;99.90;;;;;;7353234;19;110126;-94
2022/11/04 02:33:46;;;;;;;;;;;11.30;99.90;;;;;;7350466;19;109182;-93
2022/11/04 02:36:19;;;;;;;;;;;11.30;99.90;;;;;;7354197;19;108481;-94
2022/11/04 02:38:53;;;;;;;;;;;11.40;99.90;;;;;;7354342;19;109122;-93
2022/11/04 02:41:38;;;;;;;;;;;11.40;99.90;;;;;;7352395;19;108732;-94
2022/11/04 02:44:16;;;;;;;;;;;11.30;99.90;;;;;;7352680;19;109370;-94
2022/11/04 02:46:43;;;;;;;;;;;11.40;99.90;;;;;;7349516;19;109839;-93
2022/11/04 02:49:12;;;;;;;;;;;11.40;99.90;;;;;;7356906;19;108441;-94
2022/11/04 02:52:01;;;;;;;;;;;11.40;99.90;;;;;;7353221;19;110053;-95
2022/11/04 02:54:44;;;;;;;;;;;11.40;99.90;;;;;;7350952;19;108972;-94
2022/11/04 02:57:14;;;;;;;;;;;11.30;99.90;;;;;;7350186;19;108861;-94
2022/11/04 03:00:00;;;;;;;;;;;11.30;99.90;;;;;;7354185;19;109964;-93
2022/11/04 03:02:31;;;;;;;;;;;11.30;99.90;;;;;;7348992;19;108565;-93
2022/11/04 03:05:00;;;;;;;;;;;11.30;99.90;;;;;;7351257;19;109623;-94
2022/11/04 03:07:30;;;;;;;;;;;11.20;99.90;;;;;;7350317;19;110162;-93
2022/11/04 03:10:00;;;;;;;;;;;11.30;99.90;;;;;;7349244;19;108299;-93
2022/11/04 03:12:30;;;;;;;;;;;11.30;99.90;;;;;;7354685;19;110516;-94
2022/11/04 03:15:03;;;;;;;;;;;11.30;99.90;;;;;;7349579;19;108644;-93
2022/11/04 03:17:59;;;;;;;;;;;11.30;99.90;;;;;;7349316;19;109454;-94
2022/11/04 03:20:27;;;;;;;;;;;11.20;99.90;;;;;;7344910;19;112699;-93
2022/11/04 03:22:58;;;;;;;;;;;11.30;99.90;;;;;;7346499;19;108321;-93
2022/11/04 03:25:27;;;;;;;;;;;11.30;99.90;;;;;;7347943;19;111844;-94
2022/11/04 03:28:10;;;;;;;;;;;11.20;99.90;;;;;;7347774;19;112822;-93
2022/11/04 03:30:39;;;;;;;;;;;11.10;99.90;;;;;;7368804;19;108334;-93
2022/11/04 03:33:18;;;;;;;;;;;11.10;99.90;;;;;;7371889;19;108585;-93
2022/11/04 03:35:45;;;;;;;;;;;11.10;99.90;;;;;;7380621;19;108993;-92
2022/11/04 03:38:12;;;;;;;;;;;11.10;99.90;;;;;;7375662;19;109446;-92
2022/11/04 03:40:39;;;;;;;;;;;11.10;99.90;;;;;;7376401;19;112714;-93
2022/11/04 03:43:10;;;;;;;;;;;11.10;99.90;;;;;;7375532;19;108012;-93
2022/11/04 03:45:38;;;;;;;;;;;11.10;99.90;;;;;;7375959;19;110628;-95
2022/11/04 03:48:05;;;;;;;;;;;11.10;99.90;;;;;;7378115;19;109055;-95
2022/11/04 03:50:34;;;;;;;;;;;11.10;99.90;;;;;;7376826;19;108099;-94
2022/11/04 03:53:01;;;;;;;;;;;11.10;99.90;;;;;;7376924;19;108753;-95
2022/11/04 03:55:47;;;;;;;;;;;11.00;99.90;;;;;;7375571;19;109490;-94
2022/11/04 03:58:29;;;;;;;;;;;11.00;99.90;;;;;;7383274;19;108105;-94
2022/11/04 04:01:12;;;;;;;;;;;11.00;99.90;;;;;;7372517;19;108867;-91
2022/11/04 04:03:43;;;;;;;;;;;11.00;99.90;;;;;;7375144;19;108144;-93
2022/11/04 04:06:14;;;;;;;;;;;11.10;99.90;;;;;;7374112;19;108469;-92
2022/11/04 04:08:41;;;;;;;;;;;11.00;99.90;;;;;;7355090;19;109052;-93
2022/11/04 04:11:14;;;;;;;;;;;11.00;99.90;;;;;;7352465;19;108704;-92
2022/11/04 04:13:44;;;;;;;;;;;11.00;99.90;;;;;;7351277;19;109174;-92
2022/11/04 04:16:11;;;;;;;;;;;11.00;99.90;;;;;;7352096;19;109521;-93
2022/11/04 04:18:48;;;;;;;;;;;11.10;99.90;;;;;;7352459;19;108428;-92
2022/11/04 04:21:27;;;;;;;;;;;11.00;99.90;;;;;;7357106;19;109315;-92
2022/11/04 04:29:28;;;;;;;;;;;11.10;99.90;;;;;;7353055;19;109480;-92
2022/11/04 04:31:56;;;;;;;;;;;11.10;99.90;;;;;;7350892;19;108178;-93
2022/11/04 04:34:27;;;;;;;;;;;11.10;99.90;;;;;;7351736;19;108645;-92
2022/11/04 04:37:00;;;;;;;;;;;11.10;99.90;;;;;;7353916;19;109301;-94
2022/11/04 04:45:37;;;;;;;;;;;11.20;99.90;;;;;;7348381;19;108763;-94
2022/11/04 04:48:04;;;;;;;;;;;11.20;99.90;;;;;;7350795;19;108576;-94
2022/11/04 04:50:34;;;;;;;;;;;11.20;99.90;;;;;;7349599;19;109276;-93
2022/11/04 04:53:03;;;;;;;;;;;11.20;99.90;;;;;;7352867;19;108270;-94
2022/11/04 04:55:31;;;;;;;;;;;11.20;99.90;;;;;;7349210;19;109535;-94
2022/11/04 04:58:06;;;;;;;;;;;11.20;99.90;;;;;;7349682;19;110623;-95
2022/11/04 05:00:33;;;;;;;;;;;11.20;99.90;;;;;;7350475;19;108324;-94
2022/11/04 05:03:00;;;;;;;;;;;11.20;99.90;;;;;;7352115;19;108925;-94
2022/11/04 05:05:27;;;;;;;;;;;11.20;99.90;;;;;;7355384;19;109200;-94
2022/11/04 05:07:54;;;;;;;;;;;11.20;99.90;;;;;;7350684;19;109403;-95
2022/11/04 05:10:20;;;;;;;;;;;11.20;99.90;;;;;;7349851;19;109440;-94
2022/11/04 05:15:33;;;;;;;;;;;11.20;99.90;;;;;;7351283;19;111021;-94
2022/11/04 05:18:00;;;;;;;;;;;11.20;99.90;;;;;;7351265;19;113867;-94
2022/11/04 05:20:32;;;;;;;;;;;11.20;99.90;;;;;;7349727;19;108378;-94
2022/11/04 05:23:00;;;;;;;;;;;11.10;99.90;;;;;;7350729;19;112154;-94
2022/11/04 05:25:26;;;;;;;;;;;11.10;99.90;;;;;;7350524;19;110517;-94
2022/11/04 05:27:53;;;;;;;;;;;11.10;99.90;;;;;;7355793;19;108737;-94
2022/11/04 05:30:20;;;;;;;;;;;11.10;99.90;;;;;;7351461;19;112767;-95
2022/11/04 05:32:47;;;;;;;;;;;11.10;99.90;;;;;;7350236;19;108520;-94
2022/11/04 05:35:14;;;;;;;;;;;11.10;99.90;;;;;;7351141;19;109656;-94
2022/11/04 05:37:41;;;;;;;;;;;11.10;99.90;;;;;;7350416;19;108816;-94
2022/11/04 05:40:08;;;;;;;;;;;11.10;99.90;;;;;;7352348;19;108276;-93
2022/11/04 05:42:35;;;;;;;;;;;11.00;99.90;;;;;;7349291;19;108232;-95
2022/11/04 05:45:03;;;;;;;;;;;11.00;99.90;;;;;;7348607;19;109199;-94
2022/11/04 05:47:30;;;;;;;;;;;11.00;99.90;;;;;;7349254;19;108438;-94
2022/11/04 05:49:57;;;;;;;;;;;11.00;99.90;;;;;;7356538;19;108425;-94
2022/11/04 05:52:24;;;;;;;;;;;11.10;99.90;;;;;;7347965;19;108761;-94
2022/11/04 05:54:51;;;;;;;;;;;11.10;99.90;;;;;;7349728;19;108636;-94
2022/11/04 05:57:18;;;;;;;;;;;11.10;99.90;;;;;;7346227;19;109245;-94
2022/11/04 05:59:45;;;;;;;;;;;11.20;99.90;;;;;;7349722;19;108753;-94
2022/11/04 06:02:12;;;;;;;;;;;11.20;99.90;;;;;;7349764;19;110422;-95
2022/11/04 06:04:39;;;;;;;;;;;11.20;99.90;;;;;;7350288;19;108950;-95
2022/11/04 06:07:06;;;;;;;;;;;11.10;99.90;;;;;;7349468;19;108214;-95
2022/11/04 06:09:39;;;;;;;;;;;11.10;99.90;;;;;;7350285;19;108545;-95
2022/11/04 06:12:11;;;;;;;;;;;11.10;99.90;;;;;;7354166;19;110499;-95
2022/11/04 06:14:38;;;;;;;;;;;11.10;99.90;;;;;;7351116;19;108338;-95
2022/11/04 06:17:05;;;;;;;;;;;11.10;99.90;;;;;;7348428;19;108566;-95
2022/11/04 06:19:32;;;;;;;;;;;11.10;99.90;;;;;;7348024;19;108509;-94
2022/11/04 06:21:59;;;;;;;;;;;11.20;99.90;;;;;;7350392;19;111604;-95
2022/11/04 06:24:26;;;;;;;;;;;11.20;99.90;;;;;;7347947;19;110376;-96
2022/11/04 06:26:53;;;;;;;;;;;11.20;99.90;;;;;;7348532;19;108248;-95
2022/11/04 06:29:20;;;;;;;;;;;11.20;99.90;;;;;;7348184;19;108215;-96
2022/11/04 06:31:47;;;;;;;;;;;11.20;99.90;;;;;;7348203;19;109130;-96
2022/11/04 06:34:14;;;;;;;;;;;11.20;99.90;;;;;;7353802;19;107917;-95
2022/11/04 06:36:41;;;;;;;;;;;11.20;99.90;;;;;;7347185;19;111155;-94
2022/11/04 06:39:08;;;;;;;;;;;11.20;99.90;;;;;;7350513;19;108336;-95
2022/11/04 06:41:35;;;;;;;;;;;11.20;99.90;;;;;;7348881;19;109433;-93
2022/11/04 06:44:02;;;;;;;;;;;11.20;99.90;;;;;;7346002;19;109119;-93
2022/11/04 06:46:28;;;;;;;;;;;11.30;99.90;;;;;;7343831;19;108523;-88
2022/11/04 06:48:55;;;;;;;;;;;11.30;99.90;;;;;;7345454;19;112265;-92
2022/11/04 06:51:23;;;;;;;;;;;11.40;99.90;;;;;;7342871;19;110200;-91
2022/11/04 06:53:51;;;;;;;;;;;11.40;99.90;;;;;;7348712;19;108461;-90
2022/11/04 06:56:18;;;;;;;;;;;11.40;99.90;;;;;;7340541;19;111073;-90
2022/11/04 06:58:48;;;;;;;;;;;11.40;99.90;;;;;;7341306;19;108897;-90
2022/11/04 07:01:16;;;;;;;;;;;11.40;99.90;;;;;;7339747;19;109483;-88
2022/11/04 07:03:51;;;;;;;;;;;11.30;99.90;;;;;;7340965;19;110367;-90
2022/11/04 07:06:19;;;;;;;;;;;11.30;99.90;;;;;;7338651;19;108997;-89
2022/11/04 07:08:49;;;;;;;;;;;11.40;99.90;;;;;;7345358;19;108696;-91
2022/11/04 07:11:18;;;;;;;;;;;11.40;99.90;;;;;;7351235;19;113632;-90
2022/11/04 07:13:46;;;;;;;;;;;11.40;99.90;;;;;;7348706;19;108548;-89
2022/11/04 07:16:12;;;;;;;;;;;11.40;99.90;;;;;;7352336;19;109006;-90
2022/11/04 07:18:40;;;;;;;;;;;11.40;99.90;;;;;;7349890;19;108881;-89
2022/11/04 07:21:07;;;;;;;;;;;11.40;99.90;;;;;;7350425;19;109434;-89
2022/11/04 07:23:36;;;;;;;;;;;11.50;99.90;;;;;;7349811;19;109222;-90
2022/11/04 07:26:04;;;;;;;;;;;11.50;99.90;;;;;;7346914;19;108614;-89
2022/11/04 07:28:31;;;;;;;;;;;11.50;99.90;;;;;;7345784;19;112168;-90
2022/11/04 07:30:59;;;;;;;;;;;11.60;99.90;;;;;;7346109;19;109759;-90
2022/11/04 07:33:26;;;;;;;;;;;11.60;99.90;;;;;;7348159;19;108568;-89
2022/11/04 07:35:53;;;;;;;;;;;11.50;99.90;;;;;;7345825;19;109165;-88
2022/11/04 07:38:24;;;;;;;;;;;11.50;99.90;;;;;;7352059;19;109844;-88
2022/11/04 07:40:51;;;;;;;;;;;11.60;99.90;;;;;;7343956;19;109673;-89
2022/11/04 07:43:18;;;;;;;;;;;11.60;99.90;;;;;;7345731;19;109493;-90
2022/11/04 07:45:44;;;;;;;;;;;11.70;99.90;;;;;;7344426;19;108762;-88
2022/11/04 07:48:11;;;;;;;;;;;11.70;99.90;;;;;;7346823;19;111982;-89
2022/11/04 07:50:39;;;;;;;;;;;11.60;99.90;;;;;;7347156;19;110485;-89
2022/11/04 07:53:06;;;;;;;;;;;11.70;99.90;;;;;;7346146;19;108495;-89
2022/11/04 07:55:35;;;;;;;;;;;11.70;99.90;;;;;;7347238;19;109182;-90
2022/11/04 07:58:09;;;;;;;;;;;11.70;99.90;;;;;;7346589;19;109429;-89
2022/11/04 08:00:35;;;;;;;;;;;11.70;99.90;;;;;;7353163;19;108834;-89
2022/11/04 08:03:02;;;;;;;;;;;11.80;99.90;;;;;;7344200;19;110656;-89
2022/11/04 08:05:30;;;;;;;;;;;11.80;99.90;;;;;;7345192;19;108451;-89
2022/11/04 08:07:56;;;;;;;;;;;11.80;99.90;;;;;;7346834;19;108597;-89
2022/11/04 08:10:23;;;;;;;;;;;11.80;99.90;;;;;;7346783;19;110964;-88
2022/11/04 08:12:51;;;;;;;;;;;11.80;99.90;;;;;;7346995;19;108846;-90
2022/11/04 08:15:18;;;;;;;;;;;11.90;99.90;;;;;;7344015;19;109529;-89
2022/11/04 08:17:45;;;;;;;;;;;11.90;99.90;;;;;;7340785;19;110711;-89
2022/11/04 08:20:12;;;;;;;;;;;12.00;99.90;;;;;;7340069;19;109021;-91
2022/11/04 08:22:39;;;;;;;;;;;12.00;99.90;;;;;;7344002;19;114314;-90
2022/11/04 08:25:06;;;;;;;;;;;12.10;99.90;;;;;;7338691;19;109012;-90
2022/11/04 08:27:33;;;;;;;;;;;12.10;99.90;;;;;;7338800;19;109529;-89
2022/11/04 08:30:00;;;;;;;;;;;12.20;99.90;;;;;;7339364;19;109363;-90
2022/11/04 08:32:27;;;;;;;;;;;12.20;99.90;;;;;;7338452;19;108472;-90
2022/11/04 08:34:54;;;;;;;;;;;12.20;99.90;;;;;;7342041;19;112063;-89
2022/11/04 08:37:21;;;;;;;;;;;12.20;99.90;;;;;;7338440;19;111250;-90
2022/11/04 08:39:47;;;;;;;;;;;12.20;99.90;;;;;;7339299;19;108675;-90
2022/11/04 08:42:14;;;;;;;;;;;12.30;99.90;;;;;;7338437;19;109247;-90
2022/11/04 08:44:41;;;;;;;;;;;12.30;99.90;;;;;;7346209;19;110575;-90
2022/11/04 08:47:09;;;;;;;;;;;12.40;99.90;;;;;;7338505;19;111128;-90
2022/11/04 08:49:36;;;;;;;;;;;12.40;99.90;;;;;;7339102;19;110193;-90
2022/11/04 08:52:03;;;;;;;;;;;12.40;99.90;;;;;;7337384;19;108937;-91
2022/11/04 08:54:30;;;;;;;;;;;12.50;99.90;;;;;;7340032;19;110148;-90
2022/11/04 08:56:57;;;;;;;;;;;12.50;99.90;;;;;;7345936;19;109989;-90
2022/11/04 08:59:24;;;;;;;;;;;12.60;99.90;;;;;;7344646;19;108927;-89
2022/11/04 09:01:51;;;;;;;;;;;12.70;99.90;;;;;;7346133;19;109176;-89
2022/11/04 09:04:18;;;;;;;;;;;12.80;99.90;;;;;;7349420;19;109959;-90
2022/11/04 09:06:45;;;;;;;;;;;12.80;99.90;;;;;;7346600;19;108680;-89
2022/11/04 09:09:14;;;;;;;;;;;12.90;99.90;;;;;;7344725;19;110271;-91
2022/11/04 09:11:42;;;;;;;;;;;12.90;99.90;;;;;;7347045;19;108785;-89
2022/11/04 09:14:09;;;;;;;;;;;13.10;99.90;;;;;;7346479;19;109324;-89
2022/11/04 09:16:36;;;;;;;;;;;13.10;99.90;;;;;;7343806;19;109498;-89
2022/11/04 09:19:03;;;;;;;;;;;13.20;99.90;;;;;;7346166;19;108364;-89
2022/11/04 09:21:30;;;;;;;;;;;13.20;99.90;;;;;;7343614;19;109713;-90
2022/11/04 09:23:57;;;;;;;;;;;13.20;99.90;;;;;;7345847;19;110228;-90
2022/11/04 09:26:25;;;;;;;;;;;13.20;99.90;;;;;;7348407;19;108645;-90
2022/11/04 09:28:53;;;;;;;;;;;13.30;99.90;;;;;;7343849;19;110320;-90
2022/11/04 09:31:21;;;;;;;;;;;13.30;99.90;;;;;;7343673;19;108765;-90
2022/11/04 09:33:48;;;;;;;;;;;13.40;99.90;;;;;;7346534;19;111894;-88
2022/11/04 09:36:15;;;;;;;;;;;13.40;99.90;;;;;;7345208;19;110152;-89
2022/11/04 09:38:42;;;;;;;;;;;13.50;99.90;;;;;;7350103;19;108154;-90
2022/11/04 09:41:28;;;;;;;;;;;13.60;99.90;;;;;;7347617;19;112132;-88
2022/11/04 09:43:59;;;;;;;;;;;13.60;99.90;;;;;;7348821;19;109386;-89
2022/11/04 09:46:26;;;;;;;;;;;13.70;99.90;;;;;;7354903;19;108302;-88
2022/11/04 09:48:55;;;;;;;;;;;13.70;99.90;;;;;;7375870;19;108106;-90
2022/11/04 09:51:23;;;;;;;;;;;13.70;99.90;;;;;;7370973;19;108704;-91
2022/11/04 09:54:19;;;;;;;;;;;13.80;99.90;;;;;;7370840;19;110590;-90
2022/11/04 09:56:48;;;;;;;;;;;13.80;99.90;;;;;;7371932;19;108876;-89
2022/11/04 09:59:21;;;;;;;;;;;13.80;99.90;;;;;;7370400;19;108310;-91
2022/11/04 10:01:50;;;;;;;;;;;13.80;99.90;;;;;;7371977;19;108529;-90
2022/11/04 10:04:47;;;;;;;;;;;13.80;99.90;;;;;;7369927;19;108174;-89
2022/11/04 10:07:36;;;;;;;;;;;13.80;99.90;;;;;;7370234;19;111446;-90
2022/11/04 10:10:06;;;;;;;;;;;13.70;99.90;;;;;;7371828;19;108001;-89
2022/11/04 10:12:36;;;;;;;;;;;13.70;99.90;;;;;;7375724;19;109150;-90
2022/11/04 10:15:18;;;;;;;;;;;13.70;99.90;;;;;;7372848;19;107907;-90
2022/11/04 10:17:45;;;;;;;;;;;13.70;99.90;;;;;;7370386;19;109483;-89
2022/11/04 10:20:47;;;;;;;;;;;13.80;99.90;;;;;;7368531;19;108387;-90
2022/11/04 10:23:17;;;;;;;;;;;13.80;99.90;;;;;;7367724;19;108378;-90
2022/11/04 10:25:46;;;;;;;;;;;13.80;99.90;;;;;;7369042;19;108905;-89
2022/11/04 10:28:18;;;;;;;;;;;13.80;99.90;;;;;;7368714;19;108424;-90
2022/11/04 10:30:49;;;;;;;;;;;13.80;99.90;;;;;;7367742;19;108756;-91
2022/11/04 10:33:29;;;;;;;;;;;13.90;99.90;;;;;;7366041;19;107933;-89
2022/11/04 10:35:58;;;;;;;;;;;14.00;99.90;;;;;;7358394;19;108444;-90
2022/11/04 10:38:34;;;;;;;;;;;14.00;99.90;;;;;;7337333;19;112700;-89
2022/11/04 10:41:01;;;;;;;;;;;14.00;99.90;;;;;;7339213;19;108468;-89
2022/11/04 10:43:32;;;;;;;;;;;14.00;99.90;;;;;;7339305;19;112972;-90
2022/11/04 10:46:12;;;;;;;;;;;14.00;99.90;;;;;;7339292;19;110917;-89
2022/11/04 10:48:48;;;;;;;;;;;14.00;99.90;;;;;;7336991;19;108703;-90
2022/11/04 10:51:20;;;;;;;;;;;14.10;99.90;;;;;;7337382;19;109173;-90
2022/11/04 10:53:55;;;;;;;;;;;14.20;99.90;;;;;;7338019;19;110005;-89
2022/11/04 10:56:28;;;;;;;;;;;14.30;99.90;;;;;;7337403;19;108360;-90
2022/11/04 10:58:56;;;;;;;;;;;14.40;99.90;;;;;;7347713;19;109091;-90
2022/11/04 11:01:25;;;;;;;;;;;14.40;99.90;;;;;;7342683;19;108828;-90
2022/11/04 11:03:53;;;;;;;;;;;14.40;99.90;;;;;;7342272;19;108660;-90
2022/11/04 11:06:23;;;;;;;;;;;14.40;99.90;;;;;;7338679;19;110731;-88
2022/11/04 11:08:50;;;;;;;;;;;14.40;99.90;;;;;;7340972;19;108436;-88
2022/11/04 11:11:33;;;;;;;;;;;14.40;99.90;;;;;;7338679;19;110748;-89
2022/11/04 11:14:00;;;;;;;;;;;14.50;99.90;;;;;;7338592;19;111315;-88
2022/11/04 11:16:30;;;;;;;;;;;14.50;99.90;;;;;;7339423;19;108764;-89
2022/11/04 11:19:11;;;;;;;;;;;14.60;99.90;;;;;;7341127;19;109070;-87
2022/11/04 11:21:43;;;;;;;;;;;14.60;99.90;;;;;;7338372;19;108942;-88
2022/11/04 11:24:17;;;;;;;;;;;14.70;99.90;;;;;;7339834;19;109252;-89
2022/11/04 11:26:48;;;;;;;;;;;14.70;99.90;;;;;;7339766;19;109375;-89
2022/11/04 11:29:20;;;;;;;;;;;14.70;99.90;;;;;;7336043;19;108430;-90
2022/11/04 11:31:47;;;;;;;;;;;14.70;99.90;;;;;;7336651;19;108786;-89
2022/11/04 11:34:20;;;;;;;;;;;14.70;99.90;;;;;;7337531;19;112613;-91
2022/11/04 11:36:47;;;;;;;;;;;14.70;99.90;;;;;;7340252;19;108608;-89
2022/11/04 11:39:16;;;;;;;;;;;14.80;99.90;;;;;;7341074;19;109490;-91
2022/11/04 11:41:49;;;;;;;;;;;14.80;99.90;;;;;;7346903;19;110361;-90
2022/11/04 11:44:24;;;;;;;;;;;14.80;99.90;;;;;;7340347;19;108996;-90
2022/11/04 11:46:53;;;;;;;;;;;14.90;99.90;;;;;;7338546;19;113134;-88
2022/11/04 11:49:27;;;;;;;;;;;14.90;99.90;;;;;;7339389;19;108515;-89
2022/11/04 11:51:54;;;;;;;;;;;15.10;99.90;;;;;;7339375;19;109382;-90
2022/11/04 11:54:40;;;;;;;;;;;15.10;99.90;;;;;;7341893;19;110579;-92
2022/11/04 11:57:13;;;;;;;;;;;15.00;99.90;;;;;;7348062;19;108811;-91
2022/11/04 11:59:56;;;;;;;;;;;15.00;99.90;;;;;;7349025;19;109195;-90
2022/11/04 12:02:49;;;;;;;;;;;15.20;99.90;;;;;;7346854;19;110388;-89
2022/11/04 12:05:18;;;;;;;;;;;15.30;99.90;;;;;;7351404;19;108348;-89
2022/11/04 12:08:22;;;;;;;;;;;15.40;99.90;;;;;;7344652;19;109989;-90
2022/11/04 12:11:21;;;;;;;;;;;15.40;99.90;;;;;;7348500;19;108515;-91
2022/11/04 12:13:51;;;;;;;;;;;15.40;99.90;;;;;;7349441;19;111593;-91
2022/11/04 12:16:27;;;;;;;;;;;15.40;99.90;;;;;;7349422;19;108188;-90
2022/11/04 12:19:03;;;;;;;;;;;15.50;99.90;;;;;;7349896;19;108737;-91
2022/11/04 12:21:42;;;;;;;;;;;15.60;99.90;;;;;;7346088;19;109476;-91
2022/11/04 12:24:27;;;;;;;;;;;15.50;99.90;;;;;;7347477;19;110205;-92
2022/11/04 12:26:54;;;;;;;;;;;15.50;99.90;;;;;;7348024;19;108788;-92
2022/11/04 12:29:35;;;;;;;;;;;15.50;99.90;;;;;;7351280;19;112420;-91
2022/11/04 12:32:41;;;;;;;;;;;15.50;99.90;;;;;;7349025;19;109000;-92
2022/11/04 12:35:10;;;;;;;;;;;15.50;99.90;;;;;;7346922;19;109131;-91
2022/11/04 12:37:51;;;;;;;;;;;15.50;99.90;;;;;;7344082;19;108786;-91
2022/11/04 12:40:24;;;;;;;;;;;15.50;99.90;;;;;;7344562;19;108700;-92
2022/11/04 12:42:56;;;;;;;;;;;15.40;99.90;;;;;;7345143;19;109748;-91
2022/11/04 12:45:23;;;;;;;;;;;15.40;99.90;;;;;;7343843;19;112823;-92
2022/11/04 12:47:53;;;;;;;;;;;15.50;99.90;;;;;;7346295;19;108789;-91
2022/11/04 12:50:26;;;;;;;;;;;15.50;99.90;;;;;;7343495;19;109310;-93
2022/11/04 12:53:02;;;;;;;;;;;15.60;99.90;;;;;;7352406;19;111277;-92
2022/11/04 12:55:49;;;;;;;;;;;15.70;99.90;;;;;;7342951;19;110429;-92
2022/11/04 12:58:51;;;;;;;;;;;15.80;99.90;;;;;;7344278;19;110343;-92
2022/11/04 13:01:25;;;;;;;;;;;15.90;99.90;;;;;;7343893;19;108415;-92
2022/11/04 13:03:52;;;;;;;;;;;16.00;99.90;;;;;;7346283;19;111629;-91
2022/11/04 13:06:24;;;;;;;;;;;16.10;99.90;;;;;;7341493;19;108982;-92
2022/11/04 13:09:11;;;;;;;;;;;16.10;99.90;;;;;;7345523;19;108389;-92
2022/11/04 13:11:52;;;;;;;;;;;16.10;99.90;;;;;;7343132;19;109433;-91
2022/11/04 13:14:28;;;;;;;;;;;16.20;99.90;;;;;;7343174;19;112086;-91
2022/11/04 13:17:00;;;;;;;;;;;16.30;99.90;;;;;;7348660;19;108789;-91
2022/11/04 13:19:45;;;;;;;;;;;16.40;99.90;;;;;;7342463;19;110414;-92
2022/11/04 13:22:14;;;;;;;;;;;16.30;99.90;;;;;;7344935;19;108876;-91
2022/11/04 13:24:47;;;;;;;;;;;16.30;99.90;;;;;;7341862;19;109651;-91
2022/11/04 13:27:19;;;;;;;;;;;16.30;99.90;;;;;;7339867;19;112649;-91
2022/11/04 13:29:47;;;;;;;;;;;16.30;99.90;;;;;;7338686;19;110474;-91
2022/11/04 13:32:26;;;;;;;;;;;16.40;99.90;;;;;;7335577;19;109362;-91
2022/11/04 13:35:02;;;;;;;;;;;16.40;99.90;;;;;;7341260;19;110248;-92
2022/11/04 13:37:31;;;;;;;;;;;16.40;99.90;;;;;;7347901;19;108642;-92
2022/11/04 13:40:02;;;;;;;;;;;16.50;99.90;;;;;;7344136;19;110533;-92
2022/11/04 13:42:41;;;;;;;;;;;16.50;99.90;;;;;;7345995;19;108535;-91
2022/11/04 13:45:13;;;;;;;;;;;16.50;99.90;;;;;;7344646;19;110101;-91
2022/11/04 13:47:49;;;;;;;;;;;16.50;99.90;;;;;;7343269;19;111711;-92
2022/11/04 13:50:28;;;;;;;;;;;16.40;99.90;;;;;;7344137;19;108381;-91
2022/11/04 13:52:55;;;;;;;;;;;16.40;99.90;;;;;;7341711;19;109666;-91
2022/11/04 13:55:22;;;;;;;;;;;16.50;99.90;;;;;;7344033;19;108062;-92
2022/11/04 13:57:54;;;;;;;;;;;16.50;99.90;;;;;;7345804;19;108363;-90
2022/11/04 14:00:22;;;;;;;;;;;16.50;99.90;;;;;;7346276;19;109365;-91
2022/11/04 14:02:49;;;;;;;;;;;16.50;99.90;;;;;;7342954;19;108758;-91
2022/11/04 14:05:28;;;;;;;;;;;16.50;99.90;;;;;;7341565;19;110263;-89
2022/11/04 14:08:01;;;;;;;;;;;16.50;99.90;;;;;;7344079;19;110799;-90
2022/11/04 14:10:46;;;;;;;;;;;16.40;99.90;;;;;;7339990;19;108425;-90
2022/11/04 14:13:28;;;;;;;;;;;16.30;99.90;;;;;;7341858;19;109886;-90
2022/11/04 14:16:08;;;;;;;;;;;16.10;99.90;;;;;;7342030;19;111034;-89
2022/11/04 14:18:36;;;;;;;;;;;16.10;99.90;;;;;;7338000;19;108906;-90
2022/11/04 14:21:12;;;;;;;;;;;16.10;99.90;;;;;;7341076;19;110626;-91
2022/11/04 14:23:41;;;;;;;;;;;16.00;99.90;;;;;;7347263;19;110424;-90
2022/11/04 14:26:09;;;;;;;;;;;15.80;99.90;;;;;;7342661;19;109236;-90
2022/11/04 14:28:37;;;;;;;;;;;15.60;99.90;;;;;;7337319;19;110256;-89
2022/11/04 14:31:05;;;;;;;;;;;15.50;99.90;;;;;;7342090;19;113210;-89
2022/11/04 14:33:40;;;;;;;;;;;15.30;99.90;;;;;;7342318;19;110112;-89
2022/11/04 14:36:13;;;;;;;;;;;15.30;99.90;;;;;;7342442;19;110206;-91
2022/11/04 14:38:41;;;;;;;;;;;15.20;99.90;;;;;;7343109;19;108377;-89
2022/11/04 14:41:20;;;;;;;;;;;15.10;99.90;;;;;;7340799;19;108996;-90
2022/11/04 14:43:47;;;;;;;;;;;15.10;99.90;;;;;;7341665;19;110576;-90
2022/11/04 14:46:40;;;;;;;;;;;15.00;99.90;;;;;;7347152;19;109278;-90
2022/11/04 14:49:23;;;;;;;;;;;15.00;99.90;;;;;;7340981;19;110514;-90
2022/11/04 14:51:49;;;;;;;;;;;14.90;99.90;;;;;;7340499;19;108518;-91
2022/11/04 14:54:21;;;;;;;;;;;14.90;99.90;;;;;;7341399;19;109180;-90